Tiempo atmosférico en la estación meteorológica de Llanes, Asturias (10 m.)



Fecha
DESCASC
Temp. máxima en grados centígrados (hora)
DESCASC
Temp. mínima en grados centígrados (hora)
DESCASC
Temp. media en grados centígrados
DESCASC
Racha de viento máxima en m/sg (hora)
DESCASC
Velocidad máxima media en intervalos de 10 minutos(hora)
DESCASC
Precipitaciones diarias en mm
DESCASC
Precipitaciones de 00:00 a 06:00 en mm
DESCASC
Precipitaciones de 06:00 a 12:00 en mm
DESCASC
Precipitaciones de 12:00 a 18:00 en mm
DESCASC
Precipitaciones de 18:00 a 24:00 en mm
DESCASC
23-06-2019 21.6 (13:30) 16.8 (06:20) 19.2 8.61 (07:20) 5.28 (16:10) 0 0 0 0 0
22-06-2019 20.1 (14:20) 12.5 (06:10) 16.3 10.28 (20:20) 7.22 (20:00) 0 0 0 0 0
21-06-2019 19 (17:10) 14 (08:30) 16.5 20 (07:20) 6.39 (07:50) 0.8 0.4 0.2 0.2 0
20-06-2019 17.3 (15:30) 15.5 (00:00) 16.4 7.22 (20:10) 3.61 (20:30) 1.8 0.2 0.6 0.2 0.8
19-06-2019 22 (15:30) 15.1 (00:00) 18.6 6.11 (18:30) 3.89 (18:30) 1.8 0 0 0 1.8
18-06-2019 20.3 (12:40) 14.2 (00:00) 17.2 9.17 (14:00) 6.11 (14:50) 0 0 0 0 0
17-06-2019 19 (15:10) 16.1 (00:00) 17.6 8.06 (17:30) 4.17 (16:20) 0 0 0 0 0
16-06-2019 20.7 (15:50) 10.5 (00:00) 15.6 5.83 (05:10) 3.89 (15:20) 0 0 0 0 0
15-06-2019 19.4 (16:00) 12.1 (00:00) 15.8 5.83 (08:30) 2.78 (09:40) 0 0 0 0 0
14-06-2019 18.2 (18:00) 10.2 (00:00) 14.2 7.5 (03:20) 3.33 (05:50) 0 0 0 0 0
13-06-2019 16 (12:10) 11.8 (00:00) 13.9 6.67 (14:10) 3.33 (14:20) 0 0 0 0 0
12-06-2019 18.4 (13:30) 12.6 (00:00) 15.5 13.61 (06:50) 8.89 (14:50) 0 0 0 0 0
11-06-2019 17.1 (17:30) 11.1 (00:00) 14.1 13.89 (13:10) 7.78 (14:30) 15.4 10.4 4.2 0.2 0.6
10-06-2019 17.5 (14:10) 9.7 (00:00) 13.6 7.78 (06:50) 3.61 (16:20) 1 0 0 0 1
09-06-2019 15.4 (10:40) 12.4 (00:00) 13.9 13.89 (16:20) 4.72 (11:00) 1.6 0 0 0.8 0.8
08-06-2019 17.1 (11:20) 11.9 (00:00) 14.5 8.33 (16:10) 5.56 (16:20) 0 0 0 0 0
07-06-2019 19.4 (12:40) 11.8 (00:00) 15.6 20.83 (10:00) 10.28 (14:00) 0 0 0 0 0
06-06-2019 21.1 (17:20) 9.3 (00:00) 15.2 16.39 (21:40) 7.5 (21:50) 1 0 0 0.2 0.8
05-06-2019 16.9 (17:50) 12.7 (00:00) 14.8 13.89 (12:40) 7.5 (12:40) 1.2 0.4 0.4 0.4 0
04-06-2019 20 (12:00) 13.6 (00:00) 16.8 13.61 (13:30) 7.22 (13:30) 6 0 0 2.2 3.8
03-06-2019 21.4 (16:40) 16 (00:00) 18.7 5.83 (04:40) 3.61 (15:30) 0 0 0 0 0
02-06-2019 22.6 (12:10) 15.6 (00:00) 19.1 8.06 (15:20) 5.83 (15:10) 0 0 0 0 0
01-06-2019 24.7 (18:00) 13.4 (00:00) 19.1 9.72 (17:40) 5 (14:10) 0 0 0 0 0
31-05-2019 21.3 (14:50) 12.9 (00:00) 17.1 7.22 (17:30) 5.28 (16:20) 0 0 0 0 0
30-05-2019 20 (16:10) 11.7 (00:00) 15.8 10.83 (18:00) 6.94 (18:30) 0 0 0 0 0
29-05-2019 19.3 (15:20) 11.7 (00:00) 15.5 8.61 (20:30) 6.11 (20:10) 0 0 0 0 0
28-05-2019 18.1 (17:10) 12 (00:00) 15.1 11.67 (14:30) 6.67 (14:30) 0 0 0 0 0
27-05-2019 16.2 (11:30) 14 (00:00) 15.1 10.56 (13:20) 5.56 (13:20) 6.6 0 2.6 4 0
26-05-2019 17.3 (13:40) 11.9 (00:00) 14.6 8.61 (13:10) 5.83 (11:00) 0 0 0 0 0
25-05-2019 18.1 (15:10) 14.1 (00:00) 16.1 8.06 (12:30) 5 (12:10) 0 0 0 0 0

Gráficas

Temp. máximas Temp. mínimas Temp. medias Precipitaciones Rachas de viento máximas Velocidades máximas media en intervalos de 10 minutos

Datos horarios

Fecha y hora oficial Temperatura (ºC) Velocidad del viento (km/h) Dirección del viento Racha (km/h) Dirección de racha Precipitación (mm) Presión (hPa) Tendencia (hPa) Humedad (%)
2019-06-23 23:00:00 18.2 8 Este 16 Sudeste 0 1012.9 1.3 76
2019-06-23 22:00:00 18 9 Sudeste 15 Este 0 1012.6 1.4 78
2019-06-23 21:00:00 18.2 9 Este 24 Este 0 1011.9 0.7 78
2019-06-23 20:00:00 18.6 14 Este 23 Este 0 1011.6 0.2 77
2019-06-23 19:00:00 19.1 13 Este 22 Este 0 1011.2 0.6 74
2019-06-23 18:00:00 19.3 9 Este 14 Sudeste 0 1011.2 0.1 75
2019-06-23 17:00:00 19.5 11 Este 31 Sudeste 0 1011.4 -0.1 74
2019-06-23 16:00:00 19.7 16 Este 27 Este 0 1010.6 -0.6 71
2019-06-23 15:00:00 21.1 14 Este 18 Este 0 1011.1 0.5 66
2019-06-23 14:00:00 21.1 4 Nordeste 9 Nordeste 0 1011.5 1.3 69
2019-06-23 13:00:00 20.7 2 Nordeste 10 Sudeste 0 1011.2 1.2 71
2019-06-23 12:00:00 20.9 7 Este 17 Este 0 1010.6 1 73
2019-06-23 11:00:00 18.8 6 Sudeste 11 Este 0 1010.2 1 76
2019-06-23 10:00:00 17.8 4 Sudeste 20 Este 0 1010 0.4 80
2019-06-23 09:00:00 17.8 5 Sudeste 12 Noroeste 0 1009.6 0.9 79
2019-06-23 08:00:00 17.4 7 Noroeste 31 Noroeste 0 1009.2 1.1 81
2019-06-23 07:00:00 16.9 3 Norte 10 Sudoeste 0 1009.6 2.5 83
2019-06-23 06:00:00 17 4 Sudoeste 27 Noroeste 0 1008.7 1.1 84
2019-06-23 05:00:00 17 4 Oeste 27 Oeste 0 1008.1 -0.1 84
2019-06-23 04:00:00 17.1 5 Sudoeste 19 Oeste 0 1007.1 -1.9 83
2019-06-23 03:00:00 17.2 6 Sudoeste 21 Oeste 0 1007.6 -1.9 83
2019-06-23 02:00:00 17.4 3 Sudoeste 22 Oeste 0 1008.2 -0.7 82
2019-06-23 01:00:00 17.7 6 Noroeste 21 Noroeste 0 1009 0.9 81
2019-06-23 00:00:00 18.2 11 Noroeste 27 Oeste 0 1009.5 1.1 81
2019-06-22 23:00:00 18.5 8 Sur 35 Este 0 1008.9 0.1 83
2019-06-22 22:00:00 18.5 18 Este 35 Este 0 1008.1 -1.1 82
2019-06-22 21:00:00 18.7 23 Este 37 Este 0 1008.4 -1.1 80
2019-06-22 20:00:00 19.4 26 Este 33 Este 0 1008.8 -1.2 77
2019-06-22 19:00:00 19.5 20 Este 32 Este 0 1009.2 -1.3 77
2019-06-22 18:00:00 19.6 21 Este 35 Este 0 1009.5 -1.6 75
2019-06-22 17:00:00 19.5 21 Este 36 Este 0 1010 -1.9 76
2019-06-22 16:00:00 19.9 18 Este 29 Este 0 1010.5 -1.9 75
2019-06-22 15:00:00 19.2 22 Sudeste 33 Sudeste 0 1011.1 -1.6 75
2019-06-22 14:00:00 19.8 12 Este 22 Este 0 1011.9 -1.1 74
2019-06-22 13:00:00 18.7 10 Este 17 Este 0 1012.4 -1.2 73
2019-06-22 12:00:00 19.4 9 Este 12 Sudeste 0 1012.7 -1 75
2019-06-22 11:00:00 17.5 8 Este 12 Este 0 1013 -1.1 77
2019-06-22 10:00:00 16.6 2 Nordeste 5 Norte 0 1013.6 -0.7 81
2019-06-22 09:00:00 15.4 2 Oeste 21 Oeste 0 1013.7 -1.2 85
2019-06-22 08:00:00 13.9 8 Oeste 21 Oeste 0 1014.1 -1 85
2019-06-22 07:00:00 12.8 8 Oeste 15 Sudoeste 0 1014.3 -1.9 86
2019-06-22 06:00:00 12.6 10 Sudoeste 15 Sudoeste 0 1014.9 -1.9 85
2019-06-22 05:00:00 13.3 5 Sudoeste 16 Oeste 0 1015.1 -2.5 83
2019-06-22 04:00:00 13.7 6 Sudoeste 19 Oeste 0 1016.2 -2.2 83
2019-06-22 03:00:00 14.6 4 Sur 15 Oeste 0 1016.8 -2 81
2019-06-22 02:00:00 15 6 Sur 17 Oeste 0 1017.6 -1.7 79
2019-06-22 01:00:00 15.8 7 Sudeste 18 Sudeste 0 1018.4 -1.1 77
2019-06-22 00:00:00 16.5 12 Sudeste 24 Sudeste 0 1018.8 -0.8 76
2019-06-21 23:00:00 16.7 15 Sudeste 23 Este 0 1019.3 0 75
2019-06-21 22:00:00 16.9 13 Sudeste 22 Este 0 1019.5 0.3 74
2019-06-21 21:00:00 17.1 13 Sudeste 21 Sudeste 0 1019.6 0.3 72
2019-06-21 20:00:00 17.2 14 Este 22 Este 0 1019.3 0.1 73
2019-06-21 19:00:00 17.3 14 Este 24 Este 0 1019.2 -0.5 72
2019-06-21 18:00:00 17.9 17 Este 26 Este 0 1019.3 -0.5 69
2019-06-21 17:00:00 18.8 15 Este 23 Este 0 1019.2 -0.7 69
2019-06-21 16:00:00 18.1 13 Este 18 Este 0 1019.7 -0.1 71
2019-06-21 15:00:00 17.7 12 Este 22 Nordeste 0 1019.8 -0.3 74
2019-06-21 14:00:00 17.9 13 Nordeste 24 Nordeste 0 1019.9 -0.2 76
2019-06-21 13:00:00 17.8 12 Este 17 Este 0.2 1019.8 -0.3 82
2019-06-21 12:00:00 16.5 9 Este 14 Sudeste 0 1020.1 0.3 87
2019-06-21 11:00:00 15.2 9 Sudeste 17 Sudeste 0 1020.1 0.9 89
2019-06-21 10:00:00 14.5 8 Sudeste 20 Este 0 1020.1 1.6 90
2019-06-21 09:00:00 14 16 Este 26 Este 0 1019.8 1.8 90
2019-06-21 08:00:00 14.2 19 Nordeste 72 Nordeste 0 1019.2 1.5 90
2019-06-21 07:00:00 14.7 22 Nordeste 34 Nordeste 0.2 1018.5 0.9 89
2019-06-21 06:00:00 15 10 Nordeste 27 Este 0 1018 0.1 89
2019-06-21 05:00:00 15 6 Sur 17 Oeste 0 1017.7 -0.3 89
2019-06-21 04:00:00 15.2 7 Este 13 Sudeste 0 1017.6 -0.5 89
2019-06-21 03:00:00 15.3 4 Sudeste 14 Sudeste 0.2 1017.9 -0.1 88
2019-06-21 02:00:00 15.5 4 Sur 18 Oeste 0 1018 0.2 88
2019-06-21 01:00:00 15.5 5 Sudoeste 19 Oeste 0.2 1018.1 0.6 88
2019-06-21 00:00:00 15.7 4 Sudoeste 20 Oeste 0 1018 0.9 88
2019-06-20 23:00:00 15.8 7 Sudoeste 22 Oeste 0.2 1017.8 0.7 88
2019-06-20 22:00:00 15.9 4 Oeste 24 Oeste 0.2 1017.5 0.7 87
2019-06-20 21:00:00 15.9 8 Oeste 26 Oeste 0.4 1017.1 0.2 87
2019-06-20 20:00:00 16.3 6 Oeste 23 Oeste 0 1017.1 0.5 84
2019-06-20 19:00:00 16.8 4 Sudoeste 8 Sur 0 1016.8 -0.2 83
2019-06-20 18:00:00 16.8 5 Sudoeste 14 Oeste 0 1016.9 -0.1 83
2019-06-20 17:00:00 16.8 0 Calma 13 Oeste 0 1016.6 -0.5 82
2019-06-20 16:00:00 17.1 8 Sudeste 17 Este 0 1017 -0.3 82
2019-06-20 15:00:00 16.7 5 Sur 14 Sudeste 0 1017 -0.2 82
2019-06-20 14:00:00 16.9 5 Sudeste 15 Sudeste 0 1017.1 0.2 84
2019-06-20 13:00:00 16.6 6 Sudeste 19 Oeste 0.2 1017.3 0.4 87
2019-06-20 12:00:00 16 5 Sudoeste 21 Oeste 0 1017.2 0.6 88
2019-06-20 11:00:00 15.8 7 Sudoeste 21 Oeste 0.2 1016.9 0.4 88
2019-06-20 10:00:00 15.6 4 Norte 21 Noroeste 0.4 1016.9 0.5 88
2019-06-20 09:00:00 15.8 6 Oeste 19 Oeste 0 1016.6 0.3 87
2019-06-20 08:00:00 15.8 5 Oeste 19 Oeste 0 1016.5 0.1 87
2019-06-20 07:00:00 15.8 6 Sudoeste 18 Oeste 0 1016.4 0.1 87
2019-06-20 06:00:00 15.9 6 Sudoeste 16 Oeste 0.2 1016.3 -0.2 87
2019-06-20 05:00:00 16.1 3 Oeste 19 Oeste 0 1016.4 -0.2 86
2019-06-20 04:00:00 16.2 4 Sudoeste 19 Oeste 0 1016.3 -0.4 86
2019-06-20 03:00:00 16.3 4 Oeste 22 Oeste 0 1016.5 -0.2 86
2019-06-20 02:00:00 16.4 3 Oeste 22 Oeste 0 1016.6 -0.2 86
2019-06-20 01:00:00 16.3 6 Noroeste 21 Oeste 0 1016.7 0.8 86
2019-06-20 00:00:00 16.4 5 Oeste 14 Oeste 0.4 1016.7 0.9 86
2019-06-19 23:00:00 16.8 5 Oeste 13 Noroeste 0.6 1016.8 1.5 85
2019-06-19 22:00:00 17.2 6 Oeste 10 Oeste 0.2 1015.9 1 83
2019-06-19 21:00:00 17.5 5 Oeste 15 Oeste 0.4 1015.8 1.2 81
2019-06-19 20:00:00 17.9 8 Noroeste 15 Oeste 0.2 1015.3 0.8 77
2019-06-19 19:00:00 18.6 8 Noroeste 22 Noroeste 0 1014.9 0.8 73
2019-06-19 18:00:00 19.5 12 Noroeste 21 Noroeste 0 1014.6 0.8 70
2019-06-19 17:00:00 20.5 2 Nordeste 8 Este 0 1014.5 1 65
2019-06-19 16:00:00 21.4 5 Este 12 Sudeste 0 1014.1 0.9 66
2019-06-19 15:00:00 21.4 6 Este 17 Este 0 1013.8 1 68
2019-06-19 14:00:00 20.9 10 Este 17 Nordeste 0 1013.5 1 70
2019-06-19 13:00:00 21.3 10 Este 17 Nordeste 0 1013.2 0.8 67
2019-06-19 12:00:00 20.7 10 Este 13 Este 0 1012.8 0.7 65
2019-06-19 11:00:00 19.9 3 Sur 11 Oeste 0 1012.5 1.2 64
2019-06-19 10:00:00 18.6 6 Noroeste 16 Oeste 0 1012.4 1.5 72
2019-06-19 09:00:00 17.5 5 Oeste 13 Noroeste 0 1012.1 1.5 78
2019-06-19 08:00:00 16.3 6 Noroeste 20 Oeste 0 1011.3 1 79
2019-06-19 07:00:00 15.6 4 Oeste 10 Oeste 0 1010.9 0.9 81
2019-06-19 06:00:00 15.5 2 Sudoeste 19 Oeste 0 1010.6 0.5 83
2019-06-19 05:00:00 15.1 6 Sudoeste 21 Oeste 0 1010.3 0 85
2019-06-19 04:00:00 15.8 7 Sudoeste 19 Oeste 0 1010 -0.3 85
2019-06-19 03:00:00 16.3 4 Oeste 10 Sudoeste 0 1010.1 -0.4 85
2019-06-19 02:00:00 16.4 7 Sudoeste 12 Sudoeste 0 1010.3 0.1 85
2019-06-19 01:00:00 16.4 4 Sudoeste 13 Sudoeste 0 1010.3 0.2 84
2019-06-19 00:00:00 17.1 5 Este 10 Sur 0 1010.5 0.4 84
2019-06-18 23:00:00 17.2 2 Sudoeste 13 Oeste 0 1010.2 1.1 82
2019-06-18 22:00:00 17.5 2 Este 8 Noroeste 0 1010.1 1.5 80
2019-06-18 21:00:00 17.9 2 Este 11 Este 0 1010.1 1.4 77
2019-06-18 20:00:00 19.7 7 Este 14 Nordeste 0 1009.1 -0.1 74
2019-06-18 19:00:00 19.8 5 Nordeste 15 Sudeste 0 1008.6 -0.4 76
2019-06-18 18:00:00 18.1 7 Norte 21 Noroeste 0 1008.7 0 77
2019-06-18 17:00:00 18 11 Noroeste 22 Noroeste 0 1009.2 0.2 77
2019-06-18 16:00:00 19 17 Noroeste 31 Noroeste 0 1009 0.6 74
2019-06-18 15:00:00 18.5 22 Noroeste 32 Noroeste 0 1008.7 0.8 76
2019-06-18 14:00:00 18.1 18 Noroeste 33 Noroeste 0 1009 1 78
2019-06-18 13:00:00 19.6 10 Noroeste 22 Este 0 1008.4 0.1 74
2019-06-18 12:00:00 20.1 8 Este 12 Este 0 1007.9 -0.9 75
2019-06-18 11:00:00 19.3 5 Nordeste 9 Nordeste 0 1008 -1.1 77
2019-06-18 10:00:00 18.5 6 Este 10 Este 0 1008.3 -0.9 80
2019-06-18 09:00:00 16.7 2 Nordeste 8 Oeste 0 1008.8 -0.4 83
2019-06-18 08:00:00 14.8 2 Sudoeste 19 Oeste 0 1009.1 -0.2 86
2019-06-18 07:00:00 14.3 8 Sudoeste 16 Oeste 0 1009.2 -0.7 86
2019-06-18 06:00:00 14.5 7 Oeste 20 Oeste 0 1009.2 -1.3 86
2019-06-18 05:00:00 14.6 8 Sudoeste 18 Oeste 0 1009.3 -2.6 84
2019-06-18 04:00:00 14.8 9 Sudoeste 21 Oeste 0 1009.9 -2.7 83
2019-06-18 03:00:00 15.8 10 Sudeste 14 Este 0 1010.5 -2.9 83
2019-06-18 02:00:00 15.9 0 Calma 9 Sudeste 0 1011.9 -1.7 82
2019-06-18 01:00:00 16.1 3 Sudoeste 20 Oeste 0 1012.6 -0.4 82
2019-06-18 00:00:00 16.2 5 Sudoeste 12 Sur 0 1013.4 0.1 82
2019-06-17 23:00:00 16.5 3 Oeste 14 Oeste 0 1013.6 0.8 81
2019-06-17 22:00:00 16.7 2 Noroeste 13 Noroeste 0 1013 -0.5 79
2019-06-17 21:00:00 17.1 5 Noroeste 20 Noroeste 0 1013.3 -0.2 78
2019-06-17 20:00:00 17.3 6 Noroeste 21 Noroeste 0 1012.8 -0.9 76
2019-06-17 19:00:00 17.2 14 Noroeste 25 Oeste 0 1013.5 0.3 77
2019-06-17 18:00:00 17.4 13 Noroeste 29 Noroeste 0 1013.5 0.1 77
2019-06-17 17:00:00 17.5 15 Noroeste 26 Noroeste 0 1013.7 0 75
2019-06-17 16:00:00 18.1 13 Noroeste 21 Noroeste 0 1013.2 -1 73
2019-06-17 15:00:00 18.6 10 Noroeste 18 Oeste 0 1013.4 -1.2 72
2019-06-17 14:00:00 18.2 5 Nordeste 15 Oeste 0 1013.7 -1.2 72
2019-06-17 13:00:00 18.4 5 Noroeste 16 Nordeste 0 1014.2 -1.1 74
2019-06-17 12:00:00 17.9 5 Nordeste 16 Nordeste 0 1014.6 -0.8 75
2019-06-17 11:00:00 18.5 4 Norte 8 Nordeste 0 1014.9 -0.5 73
2019-06-17 10:00:00 17.3 3 Norte 12 Oeste 0 1015.3 -0.3 78
2019-06-17 09:00:00 16.5 3 Sur 10 Sur 0 1015.4 -0.6 79
2019-06-17 08:00:00 16.2 5 Sur 19 Sur 0 1015.4 -1 80
2019-06-17 07:00:00 16.1 3 Sur 7 Sur 0 1015.6 -1.3 79
2019-06-17 06:00:00 16.2 3 Sudoeste 17 Sudoeste 0 1016 -1.2 78
2019-06-17 05:00:00 16.2 2 Sur 17 Oeste 0 1016.4 -1.3 78
2019-06-17 04:00:00 16.2 4 Oeste 18 Oeste 0 1016.9 -1.3 78
2019-06-17 03:00:00 16.1 6 Sur 10 Sur 0 1017.2 -1.3 79
2019-06-17 02:00:00 16.5 3 Sur 6 Sudeste 0 1017.7 -0.9 80
2019-06-17 01:00:00 16.7 4 Sudeste 17 Este 0 1018.2 0.1 81
2019-06-17 00:00:00 16.8 5 Sudeste 13 Este 0 1018.5 0.5 81
2019-06-16 23:00:00 16.8 8 Este 15 Este 0 1018.6 0.4 80
2019-06-16 22:00:00 16.9 11 Este 20 Este 0 1018.1 0.3 79
2019-06-16 21:00:00 17.1 13 Este 17 Este 0 1018 0.2 78
2019-06-16 20:00:00 17.5 12 Este 17 Este 0 1018.2 0.3 77
2019-06-16 19:00:00 17.9 12 Este 19 Este 0 1017.8 -0.3 76
2019-06-16 18:00:00 18.6 13 Este 17 Este 0 1017.8 -0.5 73
2019-06-16 17:00:00 19.4 12 Este 17 Nordeste 0 1017.9 -0.8 70
2019-06-16 16:00:00 20.2 13 Este 18 Este 0 1018.1 -1 68
2019-06-16 15:00:00 20.4 10 Este 16 Este 0 1018.3 -1.2 67
2019-06-16 14:00:00 19.2 6 Este 12 Norte 0 1018.7 -1 68
2019-06-16 13:00:00 19.5 9 Este 17 Este 0 1019.1 -0.6 67
2019-06-16 12:00:00 18.9 11 Este 15 Este 0.2 1019.5 -0.3 64
2019-06-16 11:00:00 18.1 6 Nordeste 11 Sur 0 1019.7 0.2 64
2019-06-16 10:00:00 17.5 5 Este 10 Oeste 0 1019.7 0.2 68
2019-06-16 09:00:00 15.4 0 Calma 19 Oeste 0 1019.8 0.3 71
2019-06-16 08:00:00 12.1 7 Sudoeste 21 Oeste 0 1019.5 -0.2 77
2019-06-16 07:00:00 10.6 4 Sudoeste 14 Oeste 0 1019.5 -0.8 79
2019-06-16 06:00:00 11 5 Oeste 21 Sudoeste 0 1019.5 -1 78
2019-06-16 05:00:00 11.6 10 Sudoeste 15 Oeste 0 1019.7 -1.5 76
2019-06-16 04:00:00 12.3 9 Sudoeste 14 Oeste 0 1020.3 -1.3 78
2019-06-16 03:00:00 13.5 6 Oeste 9 Oeste 0 1020.5 -1.3 76
2019-06-16 02:00:00 14.9 2 Sur 14 Oeste 0 1021.2 -0.6 73
2019-06-16 01:00:00 15.7 5 Sudeste 19 Sudeste 0 1021.6 0.2 72
2019-06-16 00:00:00 15.9 4 Sur 6 Sur 0 1021.8 0.5 71
2019-06-15 23:00:00 16.2 2 Sur 10 Nordeste 0 1021.8 0.5 69
2019-06-15 22:00:00 16.3 8 Este 13 Nordeste 0 1021.4 0.2 69
2019-06-15 21:00:00 16.8 8 Este 11 Sur 0 1021.3 0 67
2019-06-15 20:00:00 17.2 3 Este 11 Sudoeste 0 1021.3 0.3 65
2019-06-15 19:00:00 17.4 3 Sudeste 16 Oeste 0 1021.2 0.4 62
2019-06-15 18:00:00 17.6 6 Norte 15 Oeste 0 1021.3 0.8 60
2019-06-15 17:00:00 18.2 6 Norte 14 Oeste 0 1021 0.8 62
2019-06-15 16:00:00 19.4 7 Noroeste 14 Noroeste 0 1020.8 0.7 59
2019-06-15 15:00:00 18.3 4 Nordeste 13 Sudoeste 0 1020.5 0.7 65
2019-06-15 14:00:00 18.1 4 Norte 14 Oeste 0 1020.2 0.8 64
2019-06-15 13:00:00 18.3 5 Nordeste 14 Nordeste 0 1020.1 0.9 64
2019-06-15 12:00:00 17.5 4 Norte 15 Oeste 0 1019.8 1.2 66
2019-06-15 11:00:00 18.4 8 Noroeste 20 Oeste 0 1019.4 1.5 65
2019-06-15 10:00:00 17.2 10 Noroeste 19 Noroeste 0 1019.2 1.8 68
2019-06-15 09:00:00 14.6 4 Oeste 21 Oeste 0 1018.6 1.4 76
2019-06-15 08:00:00 12.8 5 Oeste 19 Oeste 0 1017.9 0.8 79
2019-06-15 07:00:00 12.3 7 Oeste 17 Oeste 0 1017.4 0.3 79
2019-06-15 06:00:00 13.1 5 Sudoeste 16 Oeste 0 1017.2 0.1 80
2019-06-15 05:00:00 13.7 5 Oeste 14 Oeste 0 1017.1 0 78
2019-06-15 04:00:00 14.4 4 Sudoeste 19 Oeste 0 1017.1 0.1 79
2019-06-15 03:00:00 14.6 4 Oeste 19 Oeste 0 1017.1 0.4 79
2019-06-15 02:00:00 14.4 4 Sudoeste 19 Oeste 0 1017.1 0.8 80
2019-06-15 01:00:00 14.7 6 Sudoeste 19 Oeste 0 1017 1.6 79
2019-06-15 00:00:00 14.9 3 Sudoeste 19 Oeste 0 1016.7 1.9 78
2019-06-14 23:00:00 15.3 5 Oeste 18 Oeste 0 1016.3 2.1 77
2019-06-14 22:00:00 15.5 2 Noroeste 5 Noroeste 0 1015.4 1.5 74
2019-06-14 21:00:00 15.8 2 Norte 15 Noroeste 0 1014.8 1.2 73
2019-06-14 20:00:00 16.4 3 Nordeste 9 Este 0 1014.2 0.4 72
2019-06-14 19:00:00 17.5 7 Este 14 Este 0 1013.9 0.2 66
2019-06-14 18:00:00 18.2 8 Este 13 Este 0 1013.6 0.2 67
2019-06-14 17:00:00 16.3 4 Sudeste 11 Sudoeste 0 1013.8 0.6 73
2019-06-14 16:00:00 15.8 4 Norte 12 Nordeste 0 1013.7 0.5 72
2019-06-14 15:00:00 15.7 5 Nordeste 11 Norte 0 1013.4 0.3 73
2019-06-14 14:00:00 16.3 2 Norte 6 Nordeste 0 1013.2 0.4 71
2019-06-14 13:00:00 16.2 4 Este 8 Este 0 1013.2 0.4 72
2019-06-14 12:00:00 16.4 5 Este 12 Nordeste 0 1013.1 0.7 70
2019-06-14 11:00:00 16.1 9 Este 13 Nordeste 0 1012.8 0.5 71
2019-06-14 10:00:00 16.2 3 Norte 13 Noroeste 0 1012.8 0.8 75
2019-06-14 09:00:00 14.5 3 Noroeste 23 Oeste 0 1012.4 0.6 80
2019-06-14 08:00:00 11.3 9 Oeste 23 Oeste 0 1012.3 0.4 84
2019-06-14 07:00:00 10.5 10 Sudoeste 25 Oeste 0 1012 -0.3 84
2019-06-14 06:00:00 10.3 10 Sudoeste 26 Oeste 0 1011.8 -0.7 84
2019-06-14 05:00:00 10.7 11 Sudoeste 24 Oeste 0 1011.9 -1.1 84
2019-06-14 04:00:00 10.5 11 Sudoeste 27 Oeste 0 1012.3 -1.2 84
2019-06-14 03:00:00 11.1 9 Sudoeste 14 Sudoeste 0 1012.5 -1.1 82
2019-06-14 02:00:00 12.3 3 Sur 14 Oeste 0 1013 -0.6 81
2019-06-14 01:00:00 13.3 3 Sur 14 Oeste 0 1013.5 0.4 77
2019-06-14 00:00:00 13.8 3 Sur 15 Oeste 0 1013.6 0.6 76
2019-06-13 23:00:00 14.1 2 Sur 17 Oeste 0 1013.6 1.1 77
2019-06-13 22:00:00 14.4 4 Oeste 18 Oeste 0 1013.1 0.9 79
2019-06-13 21:00:00 14.2 5 Sudoeste 19 Oeste 0 1013 1 79
2019-06-13 20:00:00 13.9 8 Sudoeste 19 Oeste 0 1012.5 0.9 81
2019-06-13 19:00:00 14.2 4 Sur 17 Oeste 0 1012.2 0.7 79
2019-06-13 18:00:00 14.7 5 Sudoeste 20 Oeste 0 1012 0.6 76
2019-06-13 17:00:00 15.1 6 Nordeste 23 Norte 0 1011.6 0.2 72
2019-06-13 16:00:00 15.4 8 Nordeste 18 Norte 0 1011.5 0.3 73
2019-06-13 15:00:00 15.1 8 Nordeste 24 Norte 0 1011.4 0.2 74
2019-06-13 14:00:00 15.2 10 Nordeste 17 Nordeste 0 1011.4 0.2 73
2019-06-13 13:00:00 15.6 8 Nordeste 14 Nordeste 0 1011.2 -0.2 72
2019-06-13 12:00:00 15.8 9 Este 16 Este 0 1011.2 -0.1 72
2019-06-13 11:00:00 15.6 5 Nordeste 17 Noroeste 0 1011.2 -0.1 74
2019-06-13 10:00:00 14.8 4 Norte 17 Noroeste 0 1011.4 0.1 76
2019-06-13 09:00:00 14 0 Calma 18 Oeste 0 1011.3 0 80
2019-06-13 08:00:00 12.8 6 Oeste 19 Oeste 0 1011.3 0.1 82
2019-06-13 07:00:00 12.1 7 Oeste 12 Sudoeste 0 1011.3 -0.2 82
2019-06-13 06:00:00 11.8 9 Sudoeste 17 Oeste 0 1011.3 -0.7 83
2019-06-13 05:00:00 12.1 6 Sudoeste 12 Sudoeste 0 1011.2 -1.4 82
2019-06-13 04:00:00 12.4 9 Sudoeste 12 Sudoeste 0 1011.5 -1.6 80
2019-06-13 03:00:00 13.5 6 Sudoeste 17 Oeste 0 1012 -1.6 77
2019-06-13 02:00:00 13.9 5 Sudoeste 18 Oeste 0 1012.6 -1.2 75
2019-06-13 01:00:00 14.1 5 Sudoeste 18 Oeste 0 1013.1 -0.6 73
2019-06-13 00:00:00 14.1 4 Sudoeste 19 Oeste 0 1013.6 -0.2 71
2019-06-12 23:00:00 14.4 5 Oeste 21 Oeste 0 1013.8 0.2 71
2019-06-12 22:00:00 14.8 5 Oeste 21 Oeste 0 1013.7 0.2 71
2019-06-12 21:00:00 15 10 Oeste 23 Oeste 0 1013.8 0 69
2019-06-12 20:00:00 15.2 10 Noroeste 30 Noroeste 0 1013.6 -0.2 68
2019-06-12 19:00:00 15.7 9 Noroeste 28 Oeste 0 1013.5 -0.3 65
2019-06-12 18:00:00 16.2 18 Noroeste 35 Noroeste 0 1013.8 0.3 62
2019-06-12 17:00:00 16.5 24 Noroeste 44 Noroeste 0 1013.8 0 63
2019-06-12 16:00:00 17 22 Noroeste 45 Noroeste 0 1013.8 -0.3 58
2019-06-12 15:00:00 16.8 31 Noroeste 48 Noroeste 0 1013.5 -0.8 60
2019-06-12 14:00:00 16.5 30 Noroeste 48 Noroeste 0 1013.8 -0.2 56
2019-06-12 13:00:00 18.1 15 Oeste 39 Oeste 0 1014.1 0.3 44
2019-06-12 12:00:00 15.7 21 Noroeste 39 Oeste 0 1014.3 0.5 50
2019-06-12 11:00:00 14.9 20 Noroeste 42 Noroeste 0 1014 0.3 55
2019-06-12 10:00:00 15.5 18 Noroeste 39 Oeste 0 1013.8 0.6 54
2019-06-12 09:00:00 14.3 17 Oeste 40 Oeste 0 1013.8 0.6 55
2019-06-12 08:00:00 13.7 14 Noroeste 45 Oeste 0 1013.7 0.2 58
2019-06-12 07:00:00 13.6 17 Oeste 49 Noroeste 0 1013.2 -1 56
2019-06-12 06:00:00 13.3 15 Oeste 45 Oeste 0 1013.2 -1.3 57
2019-06-12 05:00:00 12.6 12 Oeste 40 Oeste 0 1013.5 -1.3 65
2019-06-12 04:00:00 13.3 17 Oeste 40 Oeste 0 1014.2 -1.2 60
2019-06-12 03:00:00 13.6 20 Oeste 45 Oeste 0 1014.5 -1.3 60
2019-06-12 02:00:00 13.5 16 Oeste 39 Oeste 0 1014.8 -1.5 61
2019-06-12 01:00:00 13.4 16 Oeste 38 Oeste 0 1015.4 -1 64
2019-06-12 00:00:00 13.3 12 Oeste 39 Oeste 0 1015.8 -1.1 65
2019-06-11 23:00:00 13.4 13 Oeste 31 Oeste 0 1016.3 -0.5 70
2019-06-11 22:00:00 13.5 10 Oeste 36 Oeste 0.2 1016.4 -0.5 73
2019-06-11 21:00:00 14.1 17 Oeste 46 Oeste 0.4 1016.9 -0.1 75
2019-06-11 20:00:00 15.1 27 Noroeste 50 Noroeste 0 1016.8 -0.4 67
2019-06-11 19:00:00 15.6 26 Noroeste 50 Noroeste 0 1016.9 -0.4 69
2019-06-11 18:00:00 16.9 24 Noroeste 49 Oeste 0 1017 -0.3 63
2019-06-11 17:00:00 16.4 26 Noroeste 50 Oeste 0 1017.2 -0.3 64
2019-06-11 16:00:00 15.9 24 Noroeste 50 Noroeste 0 1017.3 -0.1 67
2019-06-11 15:00:00 16.5 28 Noroeste 50 Oeste 0 1017.3 0 64
2019-06-11 14:00:00 15.2 25 Noroeste 50 Noroeste 0.2 1017.5 0.4 70
2019-06-11 13:00:00 15.5 26 Noroeste 47 Oeste 0 1017.4 0.6 66
2019-06-11 12:00:00 14.1 20 Noroeste 41 Noroeste 0 1017.3 0.8 74
2019-06-11 11:00:00 12.5 12 Oeste 31 Oeste 1.4 1017.1 1.1 81
2019-06-11 10:00:00 13.5 9 Oeste 36 Oeste 1.6 1016.8 0.9 80
2019-06-11 09:00:00 11.6 11 Oeste 35 Oeste 0.4 1016.5 0.9 80
2019-06-11 08:00:00 11.1 10 Oeste 37 Oeste 0.6 1016 0.3 82
2019-06-11 07:00:00 11.4 11 Oeste 32 Oeste 0.2 1015.9 -0.2 84
2019-06-11 06:00:00 11.3 8 Oeste 34 Oeste 1.4 1015.6 -0.6 85
2019-06-11 05:00:00 11.6 8 Oeste 31 Oeste 0.8 1015.7 -0.8 86
2019-06-11 04:00:00 11.8 16 Oeste 48 Oeste 1 1016.1 -0.8 85
2019-06-11 03:00:00 11.6 10 Oeste 33 Oeste 4.6 1016.2 -0.9 85
2019-06-11 02:00:00 11.8 8 Oeste 29 Oeste 2.4 1016.5 -1.1 84
2019-06-11 01:00:00 12.3 8 Oeste 23 Noroeste 0.2 1016.9 -0.2 80
2019-06-11 00:00:00 12.6 10 Oeste 23 Sudoeste 0.2 1017.1 -0.2 78
2019-06-10 23:00:00 12.8 7 Oeste 22 Oeste 0.4 1017.6 -0.2 79
2019-06-10 22:00:00 13.3 6 Oeste 19 Oeste 0.4 1017.1 -0.9 76
2019-06-10 21:00:00 14.6 6 Oeste 20 Oeste 0 1017.3 -0.9 73
2019-06-10 20:00:00 15 8 Oeste 19 Oeste 0 1017.8 -0.6 69
2019-06-10 19:00:00 15.2 11 Noroeste 26 Oeste 0 1018 -0.8 64
2019-06-10 18:00:00 15.2 9 Noroeste 24 Oeste 0 1018.2 -0.9 65
2019-06-10 17:00:00 15.5 12 Noroeste 21 Oeste 0 1018.4 -0.9 64
2019-06-10 16:00:00 16.4 10 Noroeste 27 Noroeste 0 1018.8 -0.7 62
2019-06-10 15:00:00 16.6 12 Noroeste 24 Norte 0 1019.1 -0.7 65
2019-06-10 14:00:00 17.3 6 Noroeste 16 Norte 0 1019.3 -0.7 66
2019-06-10 13:00:00 16.8 9 Norte 17 Oeste 0 1019.5 -0.6 67
2019-06-10 12:00:00 15.8 9 Noroeste 18 Oeste 0 1019.8 -0.1 71
2019-06-10 11:00:00 14.9 8 Noroeste 13 Noroeste 0 1020 -0.1 76
2019-06-10 10:00:00 14.4 6 Noroeste 19 Oeste 0 1020.1 0.1 81
2019-06-10 09:00:00 13.1 5 Sudoeste 18 Oeste 0 1019.9 0.1 86
2019-06-10 08:00:00 11.6 8 Sudoeste 14 Sudoeste 0 1020.1 0.2 86
2019-06-10 07:00:00 10.4 9 Sudoeste 28 Oeste 0 1020 -0.2 87
2019-06-10 06:00:00 10.4 9 Sudoeste 27 Oeste 0 1019.8 -0.9 86
2019-06-10 05:00:00 9.8 8 Sudoeste 11 Sudoeste 0 1019.9 -1.3 86
2019-06-10 04:00:00 10 3 Sudoeste 14 Oeste 0 1020.2 -1.4 86
2019-06-10 03:00:00 10.5 9 Sudoeste 16 Sudoeste 0 1020.7 -1.2 86
2019-06-10 02:00:00 11.5 8 Oeste 14 Sudoeste 0 1021.2 -0.6 86
2019-06-10 01:00:00 12.4 0 Calma 15 Oeste 0 1021.6 0.4 86
2019-06-10 00:00:00 12.6 5 Sudoeste 14 Oeste 0 1021.9 0.7 86
2019-06-09 23:00:00 12.6 4 Sudoeste 9 Sudoeste 0 1021.8 0.7 85
2019-06-09 22:00:00 12.6 4 Oeste 13 Sudoeste 0 1021.2 0.5 86
2019-06-09 21:00:00 12.4 9 Sudoeste 22 Sudoeste 0.2 1021.2 0.8 87
2019-06-09 20:00:00 12.9 10 Sudoeste 18 Sur 0 1021.1 0.9 88
2019-06-09 19:00:00 13.2 3 Oeste 11 Este 0.6 1020.7 0.6 87
2019-06-09 18:00:00 13.1 5 Sudoeste 10 Sudoeste 0.2 1020.4 0.6 87
2019-06-09 17:00:00 13 4 Oeste 50 Noroeste 0.2 1020.2 0.7 87
2019-06-09 16:00:00 13.2 11 Noroeste 32 Noroeste 0.2 1020.1 0.9 86
2019-06-09 15:00:00 13.4 10 Norte 31 Noroeste 0.2 1019.8 0.8 84
2019-06-09 14:00:00 14.2 6 Nordeste 24 Norte 0 1019.5 0.9 83
2019-06-09 13:00:00 14.1 12 Nordeste 23 Norte 0 1019.2 0.5 83
2019-06-09 12:00:00 14.1 14 Nordeste 26 Nordeste 0 1019 0.7 82
2019-06-09 11:00:00 14.8 17 Nordeste 23 Nordeste 0 1018.6 0.4 80
2019-06-09 10:00:00 14.6 3 Sudeste 17 Oeste 0 1018.7 0.6 80
2019-06-09 09:00:00 14 6 Sur 20 Sur 0 1018.3 0.4 81
2019-06-09 08:00:00 14.4 14 Este 22 Este 0 1018.2 0 80
2019-06-09 07:00:00 14.5 5 Sudeste 15 Oeste 0 1018.1 -0.5 76
2019-06-09 06:00:00 14.3 5 Sur 14 Oeste 0 1017.9 -1.2 76
2019-06-09 05:00:00 14.3 4 Sudeste 15 Sudeste 0 1018.2 -1.4 77
2019-06-09 04:00:00 14.3 7 Sur 15 Oeste 0 1018.6 -1.5 76
2019-06-09 03:00:00 14.4 5 Sudeste 19 Este 0 1019.1 -1.7 75
2019-06-09 02:00:00 14.5 10 Sudeste 20 Este 0 1019.6 -1.7 76
2019-06-09 01:00:00 14.6 8 Sudeste 20 Este 0 1020.1 -1.1 75
2019-06-09 00:00:00 14.7 10 Este 18 Sudeste 0 1020.8 -0.4 76
2019-06-08 23:00:00 14.3 9 Sudeste 22 Sudeste 0 1021.3 -0.1 77
2019-06-08 22:00:00 14.3 7 Sur 19 Oeste 0 1021.2 -0.1 76
2019-06-08 21:00:00 14.4 5 Sur 19 Sur 0 1021.2 -0.2 74
2019-06-08 20:00:00 15.1 6 Sudeste 24 Norte 0 1021.4 -0.1 72
2019-06-08 19:00:00 15.3 13 Nordeste 25 Norte 0 1021.3 -0.4 73
2019-06-08 18:00:00 15.4 15 Este 23 Este 0 1021.4 -0.5 72
2019-06-08 17:00:00 15.5 18 Este 30 Este 0 1021.5 -0.7 72
2019-06-08 16:00:00 15.6 17 Este 26 Este 0 1021.7 -0.8 72
2019-06-08 15:00:00 15.8 17 Este 25 Este 0 1021.9 -0.8 69
2019-06-08 14:00:00 16.3 17 Este 25 Este 0 1022.2 -0.8 67
2019-06-08 13:00:00 16.4 15 Este 26 Este 0 1022.5 -0.8 68
2019-06-08 12:00:00 16.5 18 Este 27 Este 0 1022.7 -0.7 65
2019-06-08 11:00:00 16.6 17 Este 22 Este 0 1023 -0.5 64
2019-06-08 10:00:00 15.9 15 Este 19 Este 0 1023.3 0.1 65
2019-06-08 09:00:00 15 7 Este 15 Oeste 0 1023.4 0.5 67
2019-06-08 08:00:00 12.9 2 Sudoeste 15 Oeste 0 1023.5 0.6 73
2019-06-08 07:00:00 11.9 9 Sudoeste 17 Oeste 0 1023.2 0.4 76
2019-06-08 06:00:00 12.8 6 Sudoeste 9 Oeste 0 1022.9 0.1 73
2019-06-08 05:00:00 13.5 6 Sudoeste 16 Oeste 0 1022.9 0.1 71
2019-06-08 04:00:00 13.8 6 Sudoeste 15 Oeste 0 1022.8 0.1 69
2019-06-08 03:00:00 14 3 Noroeste 16 Oeste 0 1022.8 0.3 66
2019-06-08 02:00:00 14.4 3 Oeste 17 Oeste 0 1022.8 0.7 66
2019-06-08 01:00:00 14.5 3 Oeste 17 Oeste 0 1022.7 1.3 62
2019-06-08 00:00:00 14.7 4 Oeste 19 Oeste 0 1022.5 1.6 62
2019-06-07 23:00:00 14.9 6 Oeste 22 Oeste 0 1022.1 2 62
2019-06-07 22:00:00 15.2 10 Noroeste 28 Noroeste 0 1021.4 2 60
2019-06-07 21:00:00 15.4 15 Noroeste 38 Oeste 0 1020.9 2.4 64
2019-06-07 20:00:00 16.7 17 Noroeste 45 Oeste 0 1020.1 2.6 58
2019-06-07 19:00:00 16.5 22 Noroeste 41 Oeste 0 1019.4 2.7 54
2019-06-07 18:00:00 17.8 23 Noroeste 54 Noroeste 0 1018.5 2.6 50
2019-06-07 17:00:00 17.7 26 Noroeste 57 Noroeste 0 1017.5 2.9 48
2019-06-07 16:00:00 17.9 26 Noroeste 65 Noroeste 0 1016.7 3 49
2019-06-07 15:00:00 17.9 30 Noroeste 66 Noroeste 0 1015.9 3.4 54
2019-06-07 14:00:00 17.8 37 Noroeste 62 Noroeste 0 1014.6 3.4 51
2019-06-07 13:00:00 18.1 24 Noroeste 57 Oeste 0 1013.7 3.9 49
2019-06-07 12:00:00 19 24 Oeste 67 Oeste 0 1012.5 4.4 33
2019-06-07 11:00:00 17.9 23 Oeste 71 Oeste 0 1011.2 4.3 33
2019-06-07 10:00:00 17 32 Oeste 75 Oeste 0 1009.8 4.3 33
2019-06-07 09:00:00 16 30 Oeste 62 Oeste 0 1008.1 3.9 41
2019-06-07 08:00:00 14.5 24 Oeste 50 Oeste 0 1006.9 3.4 47
2019-06-07 07:00:00 13.1 17 Oeste 34 Oeste 0 1005.5 2.5 57
2019-06-07 06:00:00 12.1 9 Oeste 23 Oeste 0 1004.2 2.3 63
2019-06-07 05:00:00 12.3 10 Oeste 21 Oeste 0 1003.5 1.9 66
2019-06-07 04:00:00 12.1 6 Oeste 18 Sudoeste 0 1003 2 78
2019-06-07 03:00:00 13.4 6 Oeste 15 Oeste 0 1001.9 1.2 75
2019-06-07 02:00:00 14 7 Sudoeste 26 Noroeste 0 1001.6 1.9 76
2019-06-07 01:00:00 14.7 3 Sudoeste 25 Oeste 0 1001 1 77
2019-06-07 00:00:00 15.6 5 Oeste 32 Nordeste 0 1000.7 2.5 75
2019-06-06 23:00:00 17 9 Sudoeste 53 Sudoeste 0.8 999.7 2.1 64
2019-06-06 22:00:00 17.2 25 Oeste 59 Noroeste 0 1000 1.7 65
2019-06-06 21:00:00 20.4 11 Oeste 26 Oeste 0 998.2 -0.3 42
2019-06-06 20:00:00 19.9 5 Oeste 12 Sudeste 0 997.6 -2.2 44
2019-06-06 19:00:00 20 3 Sur 19 Oeste 0 998.3 -3.2 48
2019-06-06 18:00:00 20.5 5 Noroeste 12 Noroeste 0.2 998.5 -4.5 52
2019-06-06 17:00:00 20.7 5 Sudoeste 19 Norte 0 999.8 -4.8 42
2019-06-06 16:00:00 19.8 13 Noroeste 19 Noroeste 0 1001.5 -4.8 53
2019-06-06 15:00:00 19.6 9 Noroeste 17 Este 0 1003 -4.7 61
2019-06-06 14:00:00 18.6 15 Este 27 Este 0 1004.6 -4.3 65
2019-06-06 13:00:00 17.8 21 Este 30 Este 0 1006.3 -3.5 61
2019-06-06 12:00:00 17.2 15 Este 22 Este 0 1007.7 -2.6 60
2019-06-06 11:00:00 16.6 10 Este 17 Este 0 1008.9 -2.4 62
2019-06-06 10:00:00 16 10 Este 22 Este 0 1009.8 -2.4 63
2019-06-06 09:00:00 14.7 16 Este 24 Este 0 1010.3 -2.2 63
2019-06-06 08:00:00 10.7 3 Oeste 17 Oeste 0 1011.3 -1.6 75
2019-06-06 07:00:00 9.3 8 Sudoeste 14 Sudoeste 0 1012.2 -1.1 75
2019-06-06 06:00:00 10.3 2 Sur 15 Sur 0 1012.5 -1.2 73
2019-06-06 05:00:00 10.1 8 Sudoeste 25 Oeste 0 1012.9 -1.2 75
2019-06-06 04:00:00 11.5 3 Sudoeste 13 Oeste 0 1013.3 -1.2 70
2019-06-06 03:00:00 11.8 7 Sudoeste 14 Sur 0 1013.7 -1.1 71
2019-06-06 02:00:00 11.9 8 Sudoeste 11 Sudoeste 0 1014.1 -0.8 74
2019-06-06 01:00:00 12.4 5 Sudoeste 9 Sudoeste 0 1014.5 0.1 71
2019-06-06 00:00:00 12.9 4 Oeste 27 Noroeste 0 1014.8 0.7 70
2019-06-05 23:00:00 13.8 13 Oeste 25 Oeste 0 1014.9 1 67
2019-06-05 22:00:00 14 4 Oeste 21 Oeste 0 1014.4 0.7 66
2019-06-05 21:00:00 14.5 8 Oeste 23 Oeste 0 1014.1 0.4 63
2019-06-05 20:00:00 14.5 11 Oeste 32 Oeste 0 1013.9 0.2 61
2019-06-05 19:00:00 16.3 11 Oeste 40 Oeste 0 1013.7 -0.5 57
2019-06-05 18:00:00 16.2 21 Noroeste 35 Noroeste 0 1013.7 0.1 57
2019-06-05 17:00:00 15.8 13 Noroeste 32 Noroeste 0 1013.7 0 61
2019-06-05 16:00:00 13.4 8 Oeste 46 Noroeste 0 1014.2 0.7 71
2019-06-05 15:00:00 16.6 13 Oeste 32 Oeste 0 1013.6 1.4 58
2019-06-05 14:00:00 14.6 9 Oeste 32 Oeste 0.4 1013.7 1.9 71
2019-06-05 13:00:00 13.4 20 Oeste 50 Noroeste 0 1013.5 1.9 72
2019-06-05 12:00:00 16 21 Noroeste 36 Noroeste 0 1012.2 1.3 66
2019-06-05 11:00:00 14.6 15 Oeste 41 Noroeste 0.4 1011.8 1.1 72
2019-06-05 10:00:00 14.7 22 Noroeste 41 Noroeste 0 1011.6 1.1 70
2019-06-05 09:00:00 14.7 18 Oeste 35 Oeste 0 1010.9 0.7 71
2019-06-05 08:00:00 13.3 12 Oeste 24 Oeste 0 1010.7 0.3 77
2019-06-05 07:00:00 12.8 7 Oeste 29 Noroeste 0 1010.5 -0.1 80
2019-06-05 06:00:00 12.7 9 Oeste 23 Oeste 0.2 1010.2 -0.6 81
2019-06-05 05:00:00 13 12 Noroeste 23 Noroeste 0 1010.4 -0.5 78
2019-06-05 04:00:00 13.5 12 Oeste 20 Sudoeste 0 1010.6 -0.8 76
2019-06-05 03:00:00 13.6 10 Oeste 21 Oeste 0 1010.8 -0.9 77
2019-06-05 02:00:00 13.6 5 Oeste 19 Oeste 0 1010.9 -1.2 78
2019-06-05 01:00:00 13.7 5 Oeste 18 Oeste 0.2 1011.4 0.2 80
2019-06-05 00:00:00 13.7 7 Sudoeste 23 Oeste 0.2 1011.7 0.2 81
2019-06-04 23:00:00 13.9 6 Oeste 19 Oeste 0.6 1012.1 0.6 80
2019-06-04 22:00:00 13.9 5 Oeste 17 Oeste 0 1011.2 -0.2 82
2019-06-04 21:00:00 13.7 6 Sudoeste 18 Sudoeste 1.4 1011.5 0 82
2019-06-04 20:00:00 14.3 5 Sudoeste 21 Sudoeste 0.4 1011.5 0.5 81
2019-06-04 19:00:00 14.2 7 Sudoeste 21 Sudoeste 1.2 1011.4 0.6 82
2019-06-04 18:00:00 14.5 8 Sudoeste 28 Oeste 2.2 1011.5 0.8 79
2019-06-04 17:00:00 16.2 11 Oeste 28 Oeste 0 1011 0.8 70
2019-06-04 16:00:00 16.1 10 Oeste 37 Noroeste 0 1010.8 2.4 71
2019-06-04 15:00:00 16 14 Oeste 41 Oeste 0 1010.7 3.1 73
2019-06-04 14:00:00 16.3 15 Oeste 49 Noroeste 0 1010.2 2.3 78
2019-06-04 13:00:00 18.7 12 Nordeste 25 Nordeste 0 1008.4 0.3 75
2019-06-04 12:00:00 20 9 Este 15 Sudeste 0 1007.6 0.3 74
2019-06-04 11:00:00 18 2 Nordeste 16 Oeste 0 1007.9 0.9 82
2019-06-04 10:00:00 16.3 6 Oeste 32 Noroeste 0 1008.1 0.7 86
2019-06-04 09:00:00 17.5 9 Noroeste 20 Noroeste 0 1007.3 -0.3 85
2019-06-04 08:00:00 17.4 2 Sur 13 Oeste 0 1007 -1 85
2019-06-04 07:00:00 17.1 2 Oeste 14 Oeste 0 1007.4 -1.1 85
2019-06-04 06:00:00 17.2 3 Oeste 14 Oeste 0 1007.6 -1.3 85
2019-06-04 05:00:00 17.3 6 Noroeste 18 Oeste 0 1008 -1.8 85
2019-06-04 04:00:00 17.3 4 Oeste 14 Oeste 0 1008.5 -1.9 84
2019-06-04 03:00:00 17.4 6 Oeste 23 Oeste 0 1008.9 -2.5 85
2019-06-04 02:00:00 17.4 6 Oeste 12 Oeste 0 1009.8 -2.4 85
2019-06-04 01:00:00 17.5 6 Sudeste 15 Sudeste 0 1010.4 -2.1 86
2019-06-04 00:00:00 17.5 8 Sudeste 17 Sudeste 0 1011.4 -1.6 86
2019-06-03 23:00:00 17.7 11 Este 19 Este 0 1012.2 -0.9 85
2019-06-03 22:00:00 18 6 Este 19 Este 0 1012.5 -0.8 84
2019-06-03 21:00:00 18.4 9 Este 14 Este 0 1013 -0.5 83
2019-06-03 20:00:00 18.7 6 Este 13 Este 0 1013.1 -0.6 82
2019-06-03 19:00:00 19.1 9 Nordeste 13 Este 0 1013.3 -0.8 80
2019-06-03 18:00:00 20.3 9 Este 13 Este 0 1013.5 -1.3 76
2019-06-03 17:00:00 20.7 11 Este 15 Este 0 1013.7 -1.7 75
2019-06-03 16:00:00 21.1 11 Este 16 Este 0 1014.1 -1.8 75
2019-06-03 15:00:00 20.7 10 Este 14 Este 0 1014.8 -1.4 74
2019-06-03 14:00:00 20.7 8 Este 14 Este 0 1015.4 -0.5 73
2019-06-03 13:00:00 20.4 9 Este 14 Este 0 1015.9 -0.6 72
2019-06-03 12:00:00 20.1 6 Nordeste 13 Nordeste 0 1016.2 -0.2 70
2019-06-03 11:00:00 20 6 Nordeste 11 Sudoeste 0 1015.9 -0.2 74
2019-06-03 10:00:00 18.5 4 Noroeste 13 Sur 0 1016.5 0.2 78
2019-06-03 09:00:00 17.7 5 Este 11 Sudoeste 0 1016.4 0.8 80
2019-06-03 08:00:00 17 2 Sudoeste 15 Sudoeste 0 1016.1 0.4 79
2019-06-03 07:00:00 16.3 6 Sudoeste 17 Oeste 0 1016.3 0.6 78
2019-06-03 06:00:00 16.4 5 Oeste 20 Oeste 0 1015.6 -1 77
2019-06-03 05:00:00 16.3 3 Sudoeste 21 Oeste 0 1015.7 -1.5 76
2019-06-03 04:00:00 16.5 3 Sur 15 Oeste 0 1015.7 -1.3 76
2019-06-03 03:00:00 16.5 6 Oeste 20 Oeste 0 1016.6 -0.6 74
2019-06-03 02:00:00 16 8 Sudoeste 19 Oeste 0 1017.2 0.1 77
2019-06-03 01:00:00 16.5 3 Sudoeste 11 Sudoeste 0 1017 0.3 78
2019-06-03 00:00:00 17 2 Oeste 14 Sudoeste 0 1017.2 0.5 79
2019-06-02 23:00:00 17.2 3 Noroeste 13 Oeste 0 1017.1 0.5 78
2019-06-02 22:00:00 17.7 3 Norte 13 Oeste 0 1016.7 0.1 75
2019-06-02 21:00:00 18 5 Noroeste 17 Oeste 0 1016.7 0.3 72
2019-06-02 20:00:00 18.2 12 Noroeste 20 Noroeste 0 1016.6 0.3 76
2019-06-02 19:00:00 19.3 3 Noroeste 13 Noroeste 0 1016.6 0.5 71
2019-06-02 18:00:00 18.8 8 Noroeste 22 Noroeste 0 1016.4 0.4 75
2019-06-02 17:00:00 18.6 14 Noroeste 29 Noroeste 0 1016.3 0.4 75
2019-06-02 16:00:00 18.6 17 Noroeste 29 Noroeste 0 1016.1 0.1 75
2019-06-02 15:00:00 19 17 Noroeste 26 Noroeste 0 1016 0.5 74
2019-06-02 14:00:00 20.9 7 Noroeste 13 Norte 0 1015.9 0.6 68
2019-06-02 13:00:00 22 4 Nordeste 10 Noroeste 0 1016 1 63
2019-06-02 12:00:00 22.5 3 Norte 6 Noroeste 0 1015.5 0.7 56
2019-06-02 11:00:00 21.7 3 Norte 13 Sudoeste 0 1015.3 0.3 62
2019-06-02 10:00:00 20.1 2 Sudeste 10 Sudeste 0 1015 0.1 63
2019-06-02 09:00:00 20.1 5 Sudoeste 10 Sudoeste 0 1014.8 -0.2 61
2019-06-02 08:00:00 17.3 2 Oeste 10 Oeste 0 1015 -0.1 71
2019-06-02 07:00:00 15.7 4 Oeste 24 Oeste 0 1014.9 -0.4 73
2019-06-02 06:00:00 16.1 6 Sudoeste 13 Sudoeste 0 1015 -0.6 73
2019-06-02 05:00:00 16.6 5 Sudoeste 25 Oeste 0 1015.1 -0.9 71
2019-06-02 04:00:00 16.8 6 Sudoeste 10 Sudoeste 0 1015.3 -1 71
2019-06-02 03:00:00 17.4 2 Sur 14 Oeste 0 1015.6 -0.7 69
2019-06-02 02:00:00 17.8 0 Calma 8 Sudoeste 0 1016 -0.3 69
2019-06-02 01:00:00 18.4 5 Oeste 12 Oeste 0 1016.3 0.5 69
2019-06-02 00:00:00 18.7 8 Oeste 14 Sudoeste 0 1016.3 0.7 67
2019-06-01 23:00:00 19.3 4 Oeste 12 Oeste 0 1016.3 1 64
2019-06-01 22:00:00 20.2 4 Oeste 19 Oeste 0 1015.8 0.7 53
2019-06-01 21:00:00 21.6 10 Noroeste 27 Noroeste 0 1015.6 0.2 52
2019-06-01 20:00:00 23.1 14 Noroeste 33 Oeste 0 1015.3 -0.3 45
2019-06-01 19:00:00 24.2 16 Noroeste 33 Oeste 0 1015.1 -0.8 37
2019-06-01 18:00:00 24.4 17 Noroeste 35 Oeste 0 1015.4 -0.8 39
2019-06-01 17:00:00 23.5 17 Noroeste 26 Noroeste 0 1015.6 -0.9 44
2019-06-01 16:00:00 23.8 14 Noroeste 32 Oeste 0 1015.9 -1 44
2019-06-01 15:00:00 23.6 17 Noroeste 26 Oeste 0 1016.2 -0.4 44
2019-06-01 14:00:00 23.1 16 Noroeste 23 Noroeste 0 1016.5 0.2 49
2019-06-01 13:00:00 22.1 13 Noroeste 19 Noroeste 0 1016.9 0.7 60
2019-06-01 12:00:00 22.8 3 Norte 10 Norte 0 1016.6 0.4 57
2019-06-01 11:00:00 21.7 0 Calma 5 Norte 0 1016.3 0.1 60
2019-06-01 10:00:00 20.3 2 Noroeste 7 Noroeste 0 1016.2 0.1 67
2019-06-01 09:00:00 18.2 3 Noroeste 8 Oeste 0 1016.2 0 73
2019-06-01 08:00:00 15 2 Sudoeste 13 Sudoeste 0 1016.2 0 79
2019-06-01 07:00:00 13.6 3 Noroeste 22 Oeste 0 1016.1 -0.5 80
2019-06-01 06:00:00 13.7 5 Oeste 19 Oeste 0 1016.2 -0.6 82
2019-06-01 05:00:00 13.8 2 Sudoeste 22 Oeste 0 1016.2 -1 82
2019-06-01 04:00:00 14.5 7 Oeste 21 Oeste 0 1016.6 -1.3 84
2019-06-01 03:00:00 14.6 7 Sudoeste 19 Oeste 0 1016.8 -1.6 83
2019-06-01 02:00:00 15.2 8 Oeste 23 Oeste 0 1017.2 -1.2 84
2019-06-01 01:00:00 15.5 8 Sudoeste 21 Oeste 0 1017.9 -0.2 83
2019-06-01 00:00:00 16.4 6 Oeste 19 Oeste 0 1018.4 0.3 81
2019-05-31 23:00:00 17.2 4 Este 14 Este 0 1018.4 0.2 79
2019-05-31 22:00:00 17.9 9 Este 21 Sudeste 0 1018.1 -0.4 77
2019-05-31 21:00:00 18.8 11 Este 23 Este 0 1018.1 -0.7 74
2019-05-31 20:00:00 19.3 10 Este 23 Este 0 1018.2 -1.1 72
2019-05-31 19:00:00 19.7 11 Este 21 Este 0 1018.5 -1.2 72
2019-05-31 18:00:00 20 13 Este 26 Este 0 1018.8 -1.4 71
2019-05-31 17:00:00 20.8 9 Este 24 Este 0 1019.3 -1.1 71
2019-05-31 16:00:00 20.6 11 Este 18 Este 0 1019.7 -0.9 71
2019-05-31 15:00:00 20.6 7 Este 16 Este 0 1020.2 -0.4 71
2019-05-31 14:00:00 20.2 10 Este 19 Este 0 1020.4 -0.4 75
2019-05-31 13:00:00 20 11 Este 15 Este 0 1020.6 -0.2 73
2019-05-31 12:00:00 19.5 9 Este 15 Este 0 1020.6 -0.2 74
2019-05-31 11:00:00 19.4 3 Nordeste 6 Nordeste 0 1020.8 0.1 74
2019-05-31 10:00:00 18.5 3 Norte 12 Oeste 0 1020.8 0 79
2019-05-31 09:00:00 16.6 0 Calma 8 Oeste 0 1020.8 -0.1 83
2019-05-31 08:00:00 14.1 2 Oeste 15 Oeste 0 1020.7 -0.7 86
2019-05-31 07:00:00 13.2 2 Sudoeste 15 Oeste 0 1020.8 -0.9 86
2019-05-31 06:00:00 13.2 3 Oeste 16 Oeste 0 1020.9 -1 86
2019-05-31 05:00:00 13.7 7 Sudoeste 14 Sudoeste 0 1021.4 -1.1 86
2019-05-31 04:00:00 13.6 9 Sudoeste 22 Oeste 0 1021.7 -1.5 86
2019-05-31 03:00:00 14 6 Oeste 13 Sudoeste 0 1021.9 -1.7 85
2019-05-31 02:00:00 14.7 8 Sudoeste 19 Oeste 0 1022.5 -0.9 84
2019-05-31 01:00:00 15.9 5 Sudeste 25 Este 0 1023.2 0.5 84
2019-05-31 00:00:00 16.4 15 Sudeste 23 Sudeste 0 1023.6 0.9 82
2019-05-30 23:00:00 16.5 9 Sudeste 22 Sudeste 0 1023.4 0.5 81
2019-05-30 22:00:00 17 14 Este 25 Este 0 1022.7 -0.6 78
2019-05-30 21:00:00 17.4 20 Este 32 Este 0 1022.7 -0.8 75
2019-05-30 20:00:00 18 18 Este 29 Este 0 1022.9 -0.9 75
2019-05-30 19:00:00 18.2 21 Este 37 Este 0 1023.3 -0.8 72
2019-05-30 18:00:00 18.7 21 Este 39 Este 0 1023.5 -0.7 67
2019-05-30 17:00:00 19 21 Este 27 Este 0 1023.8 -0.7 68
2019-05-30 16:00:00 19.6 11 Este 25 Este 0 1024.1 -0.4 66
2019-05-30 15:00:00 19 17 Este 25 Este 0 1024.2 -0.1 68
2019-05-30 14:00:00 19.5 11 Este 20 Este 0 1024.5 0.2 71
2019-05-30 13:00:00 19.2 8 Este 19 Sudeste 0 1024.5 0.1 73
2019-05-30 12:00:00 18.4 11 Este 20 Este 0 1024.3 -0.1 74
2019-05-30 11:00:00 17.7 15 Este 21 Este 0 1024.3 0.3 73
2019-05-30 10:00:00 17.7 2 Nordeste 6 Norte 0 1024.4 0.5 72
2019-05-30 09:00:00 16.4 3 Norte 8 Oeste 0 1024.4 0.6 78
2019-05-30 08:00:00 13.4 5 Oeste 20 Oeste 0 1024 0 82
2019-05-30 07:00:00 11.7 9 Oeste 17 Oeste 0 1023.9 -0.4 83
2019-05-30 06:00:00 11.9 8 Sudoeste 12 Sudoeste 0 1023.8 -1 83
2019-05-30 05:00:00 12.1 9 Oeste 14 Oeste 0 1024 -1.3 83
2019-05-30 04:00:00 12.1 8 Oeste 16 Oeste 0 1024.3 -1.2 81
2019-05-30 03:00:00 13 2 Sudoeste 15 Oeste 0 1024.8 -0.8 80
2019-05-30 02:00:00 13.1 7 Sudoeste 13 Oeste 0 1025.3 -0.6 81
2019-05-30 01:00:00 12.9 10 Sudoeste 14 Oeste 0 1025.5 0.2 80
2019-05-30 00:00:00 14.5 3 Sudoeste 15 Oeste 0 1025.6 0.3 76
2019-05-29 23:00:00 15.1 6 Sudeste 28 Este 0 1025.9 0.9 76
2019-05-29 22:00:00 15.7 14 Sudeste 28 Este 0 1025.3 0.3 74
2019-05-29 21:00:00 16.3 18 Este 31 Este 0 1025.3 -0.2 72
2019-05-29 20:00:00 17.2 22 Este 29 Este 0 1025 -0.6 72
2019-05-29 19:00:00 17.5 15 Este 25 Este 0 1025 -0.7 71
2019-05-29 18:00:00 18 12 Este 22 Este 0 1025.5 -0.5 69
2019-05-29 17:00:00 18.5 15 Este 20 Este 0 1025.6 -0.7 69
2019-05-29 16:00:00 18.7 13 Este 18 Este 0 1025.7 -0.7 69
2019-05-29 15:00:00 19.2 9 Este 14 Este 0 1026 -0.1 69
2019-05-29 14:00:00 18.2 7 Nordeste 11 Nordeste 0 1026.3 0.4 68
2019-05-29 13:00:00 18.2 5 Nordeste 12 Nordeste 0 1026.4 0.4 68
2019-05-29 12:00:00 17.9 6 Nordeste 17 Este 0 1026.1 0.5 65
2019-05-29 11:00:00 17.6 5 Norte 9 Norte 0 1025.9 1 62
2019-05-29 10:00:00 16.4 2 Norte 19 Oeste 0 1026 1.3 66
2019-05-29 09:00:00 13.9 5 Oeste 20 Oeste 0 1025.6 1.2 71
2019-05-29 08:00:00 12.3 8 Sudoeste 18 Oeste 0 1024.9 0.6 73
2019-05-29 07:00:00 11.9 7 Oeste 20 Oeste 0 1024.7 0.2 75
2019-05-29 06:00:00 12.3 5 Sudoeste 12 Sudoeste 0 1024.4 -0.1 74
2019-05-29 05:00:00 12.5 5 Oeste 13 Oeste 0 1024.3 -0.3 74
2019-05-29 04:00:00 12.4 8 Oeste 13 Oeste 0 1024.5 -0.4 74
2019-05-29 03:00:00 12.4 6 Sudoeste 14 Noroeste 0 1024.5 -0.1 74
2019-05-29 02:00:00 13.3 4 Oeste 17 Oeste 0 1024.6 -0.1 73
2019-05-29 01:00:00 13.5 9 Oeste 14 Oeste 0 1024.9 0.7 72
2019-05-29 00:00:00 13.9 4 Oeste 18 Oeste 0 1024.6 0.7 72
2019-05-28 23:00:00 14.4 6 Oeste 19 Oeste 0 1024.7 0.9 74
2019-05-28 22:00:00 15 9 Oeste 27 Noroeste 0 1024.2 0.7 72
2019-05-28 21:00:00 15.8 14 Oeste 26 Oeste 0 1023.9 0.9 69
2019-05-28 20:00:00 17.3 14 Noroeste 32 Oeste 0 1023.8 0.9 64
2019-05-28 19:00:00 17.2 19 Noroeste 31 Noroeste 0 1023.5 0.7 66
2019-05-28 18:00:00 17 21 Noroeste 32 Noroeste 0 1023 0.5 66
2019-05-28 17:00:00 18 19 Noroeste 35 Oeste 0 1022.9 0.7 64
2019-05-28 16:00:00 17.9 18 Noroeste 40 Noroeste 0 1022.8 1 63
2019-05-28 15:00:00 17.8 19 Noroeste 42 Noroeste 0 1022.5 1 66
2019-05-28 14:00:00 17.4 21 Noroeste 35 Noroeste 0 1022.2 1.2 67
2019-05-28 13:00:00 15.9 18 Noroeste 39 Noroeste 0 1021.8 0.7 66
2019-05-28 12:00:00 16.2 24 Noroeste 41 Oeste 0 1021.5 1 65
2019-05-28 11:00:00 15.8 12 Oeste 26 Oeste 0 1021 0.4 61
2019-05-28 10:00:00 14.4 10 Oeste 24 Oeste 0 1021.1 1.2 69
2019-05-28 09:00:00 14.2 9 Oeste 22 Oeste 0 1020.5 0.9 69
2019-05-28 08:00:00 13.4 13 Oeste 28 Oeste 0 1020.6 1.2 73
2019-05-28 07:00:00 12.8 11 Oeste 21 Oeste 0 1019.9 0.2 77
2019-05-28 06:00:00 12.2 6 Oeste 19 Oeste 0 1019.6 -0.1 80
2019-05-28 05:00:00 12.2 7 Oeste 18 Oeste 0 1019.4 -0.4 78
2019-05-28 04:00:00 12.7 7 Oeste 16 Oeste 0 1019.7 -0.4 78
2019-05-28 03:00:00 13.1 7 Oeste 17 Sudoeste 0 1019.7 -0.3 79
2019-05-28 02:00:00 13.5 6 Oeste 16 Sudoeste 0 1019.8 -0.1 80
2019-05-28 01:00:00 13.9 9 Oeste 19 Oeste 0 1020.1 0.4 82
2019-05-28 00:00:00 14 10 Oeste 18 Oeste 0 1020 0.6 83
2019-05-27 23:00:00 14.1 7 Oeste 19 Oeste 0 1019.9 0.8 82
2019-05-27 22:00:00 14.5 6 Oeste 20 Oeste 0 1019.7 0.4 82
2019-05-27 21:00:00 14.7 10 Noroeste 22 Oeste 0 1019.4 0.6 81
2019-05-27 20:00:00 14.6 10 Noroeste 22 Oeste 0 1019.1 0.7 83
2019-05-27 19:00:00 14.6 13 Noroeste 27 Noroeste 0 1019.3 0.9 85
2019-05-27 18:00:00 14.7 18 Noroeste 30 Noroeste 0.2 1018.8 0.1 87
2019-05-27 17:00:00 15.1 13 Noroeste 29 Noroeste 1 1018.4 0 88
2019-05-27 16:00:00 15.6 16 Noroeste 28 Oeste 0.4 1018.4 0 88
2019-05-27 15:00:00 15.8 14 Oeste 31 Noroeste 0.6 1018.7 0.7 88
2019-05-27 14:00:00 15.9 16 Noroeste 38 Oeste 1 1018.4 0.5 88
2019-05-27 13:00:00 15.9 14 Noroeste 32 Noroeste 0.8 1018.4 0.5 87
2019-05-27 12:00:00 16 12 Noroeste 21 Noroeste 0.6 1018 0.5 86
2019-05-27 11:00:00 15.6 0 Calma 14 Noroeste 1.4 1017.9 0.2 85
2019-05-27 10:00:00 15 0 Calma 19 Noroeste 0.6 1017.9 0.2 83
2019-05-27 09:00:00 14.7 4 Noroeste 20 Oeste 0 1017.5 -0.3 80
2019-05-27 08:00:00 14.4 5 Oeste 18 Oeste 0 1017.7 -0.4 76
2019-05-27 07:00:00 14.3 4 Oeste 17 Oeste 0 1017.7 -1 75
2019-05-27 06:00:00 14.3 3 Oeste 16 Oeste 0 1017.8 -1.4 75
2019-05-27 05:00:00 14.4 4 Oeste 18 Oeste 0 1018.1 -1.2 75
2019-05-27 04:00:00 14.5 4 Oeste 19 Oeste 0 1018.7 -1.2 76
2019-05-27 03:00:00 14.6 4 Oeste 18 Oeste 0 1019.2 -1.4 76
2019-05-27 02:00:00 14.7 4 Oeste 18 Oeste 0 1019.3 -1.9 76
2019-05-27 01:00:00 14.7 4 Oeste 18 Oeste 0 1019.9 -0.7 76
2019-05-27 00:00:00 14.8 5 Oeste 21 Oeste 0 1020.6 -0.2 77
2019-05-26 23:00:00 14.9 4 Oeste 18 Oeste 0 1021.2 0 77
2019-05-26 22:00:00 15 5 Noroeste 14 Oeste 0 1020.6 -0.8 78
2019-05-26 21:00:00 15.1 6 Oeste 19 Oeste 0 1020.8 -0.8 78
2019-05-26 20:00:00 15.4 8 Noroeste 18 Noroeste 0 1021.2 -0.6 78
2019-05-26 19:00:00 15.7 12 Noroeste 21 Noroeste 0 1021.4 -0.8 78
2019-05-26 18:00:00 16.3 9 Noroeste 25 Norte 0 1021.6 -0.8 76
2019-05-26 17:00:00 16.8 9 Noroeste 26 Norte 0 1021.8 -0.7 75
2019-05-26 16:00:00 16.6 17 Noroeste 30 Noroeste 0 1022.2 -0.7 74
2019-05-26 15:00:00 16.8 15 Noroeste 28 Noroeste 0 1022.4 -0.6 73
2019-05-26 14:00:00 17.1 19 Noroeste 31 Noroeste 0 1022.5 -0.4 72
2019-05-26 13:00:00 16.4 15 Noroeste 26 Noroeste 0 1022.9 0.1 71
2019-05-26 12:00:00 16.6 13 Noroeste 28 Noroeste 0 1023 0.1 67
2019-05-26 11:00:00 16.5 21 Noroeste 28 Noroeste 0 1022.9 0 67
2019-05-26 10:00:00 17.1 10 Noroeste 19 Oeste 0 1022.8 0 67
2019-05-26 09:00:00 14.9 10 Oeste 27 Oeste 0 1022.9 0.5 76
2019-05-26 08:00:00 12.7 8 Oeste 14 Oeste 0 1022.9 0 81
2019-05-26 07:00:00 11.9 10 Sudoeste 14 Sudoeste 0 1022.8 -0.4 82
2019-05-26 06:00:00 12.8 7 Sudoeste 9 Sudoeste 0 1022.4 -1.1 79
2019-05-26 05:00:00 13.4 5 Sudoeste 12 Oeste 0 1022.9 -1 78
2019-05-26 04:00:00 14 5 Oeste 16 Oeste 0 1023.2 -1.3 76
2019-05-26 03:00:00 14.5 5 Oeste 17 Oeste 0 1023.5 -1.3 76
2019-05-26 02:00:00 14.6 3 Oeste 19 Oeste 0 1023.9 -0.9 75
2019-05-26 01:00:00 14.5 4 Oeste 18 Oeste 0 1024.5 0 74
2019-05-26 00:00:00 14.7 5 Sudoeste 18 Oeste 0 1024.8 0.7 73
2019-05-25 23:00:00 15 4 Oeste 16 Oeste 0 1024.8 1.1 72
2019-05-25 22:00:00 15.3 7 Noroeste 12 Noroeste 0 1024.5 0.7 69
2019-05-25 21:00:00 16.4 7 Noroeste 16 Oeste 0 1024.1 0.2 65
2019-05-25 20:00:00 17.1 6 Noroeste 12 Noroeste 0 1023.7 -0.3 64
2019-05-25 19:00:00 17.3 6 Norte 13 Noroeste 0 1023.8 -0.2 65
2019-05-25 18:00:00 17.4 8 Noroeste 17 Noroeste 0 1023.9 -0.6 66
2019-05-25 17:00:00 17.8 8 Noroeste 18 Noroeste 0 1024 -0.6 68
2019-05-25 16:00:00 16.9 14 Noroeste 19 Noroeste 0 1024 -0.6 70
2019-05-25 15:00:00 17.7 13 Noroeste 21 Noroeste 0 1024.5 0.2 67
2019-05-25 14:00:00 17.4 14 Noroeste 29 Noroeste 0 1024.6 0.3 70
2019-05-25 13:00:00 16.3 17 Noroeste 29 Noroeste 0 1024.6 0.6 74
2019-05-25 12:00:00 17.1 17 Noroeste 25 Oeste 0 1024.3 0.5 72
2019-05-25 11:00:00 15.6 13 Noroeste 26 Oeste 0 1024.3 0.8 73
2019-05-25 10:00:00 15.5 12 Noroeste 28 Oeste 0 1024 1 72
2019-05-25 09:00:00 14.9 9 Oeste 20 Oeste 0 1023.8 1.3 75
2019-05-25 08:00:00 14.2 9 Oeste 18 Oeste 0 1023.5 0.8 77
2019-05-25 07:00:00 14.2 8 Oeste 20 Noroeste 0 1023 0.4 77
2019-05-25 06:00:00 14.2 8 Noroeste 18 Oeste 0 1022.5 -0.3 76
2019-05-25 05:00:00 14.2 5 Oeste 18 Oeste 0 1022.7 -0.5 76
2019-05-25 04:00:00 14.3 6 Oeste 19 Oeste 0 1022.6 -0.7 77
2019-05-25 03:00:00 14.3 4 Oeste 18 Oeste 0 1022.8 -0.2 77
2019-05-25 02:00:00 14.3 5 Oeste 20 Oeste 0 1023.2 0.1 77
2019-05-25 01:00:00 14.4 11 Noroeste 21 Noroeste 0 1023.3 1.1 76
2019-05-25 00:00:00 14.3 8 Noroeste 17 Oeste 0 1023 1.3 76